sensor_id;sensor_type;location;lat;lon;timestamp;pressure;altitude;pressure_sealevel;temperature
49785;BMP280;35679;38.732;-121.358;2024-03-08T00:01:32;101133.59;;;17.94
49785;BMP280;35679;38.732;-121.358;2024-03-08T00:04:22;101136.06;;;17.95
49785;BMP280;35679;38.732;-121.358;2024-03-08T00:07:14;101137.72;;;17.96
49785;BMP280;35679;38.732;-121.358;2024-03-08T00:10:04;101147.16;;;17.99
49785;BMP280;35679;38.732;-121.358;2024-03-08T00:12:54;101155.97;;;17.99
49785;BMP280;35679;38.732;-121.358;2024-03-08T00:15:44;101146.78;;;18.02
49785;BMP280;35679;38.732;-121.358;2024-03-08T00:18:35;101151.06;;;18.03
49785;BMP280;35679;38.732;-121.358;2024-03-08T00:21:25;101157.03;;;18.05
49785;BMP280;35679;38.732;-121.358;2024-03-08T00:24:15;101150.66;;;18.06
49785;BMP280;35679;38.732;-121.358;2024-03-08T00:27:05;101147.78;;;18.07
49785;BMP280;35679;38.732;-121.358;2024-03-08T00:29:55;101151.25;;;18.08
49785;BMP280;35679;38.732;-121.358;2024-03-08T00:32:45;101152.69;;;18.10
49785;BMP280;35679;38.732;-121.358;2024-03-08T00:35:35;101149.22;;;18.10
49785;BMP280;35679;38.732;-121.358;2024-03-08T00:38:24;101145.53;;;18.11
49785;BMP280;35679;38.732;-121.358;2024-03-08T00:41:14;101140.78;;;18.13
49785;BMP280;35679;38.732;-121.358;2024-03-08T00:44:04;101138.97;;;18.13
49785;BMP280;35679;38.732;-121.358;2024-03-08T00:46:54;101148.63;;;18.14
49785;BMP280;35679;38.732;-121.358;2024-03-08T00:49:43;101144.91;;;18.15
49785;BMP280;35679;38.732;-121.358;2024-03-08T00:52:33;101144.72;;;18.17
49785;BMP280;35679;38.732;-121.358;2024-03-08T00:55:24;101149.22;;;18.16
49785;BMP280;35679;38.732;-121.358;2024-03-08T00:58:13;101145.53;;;18.17
49785;BMP280;35679;38.732;-121.358;2024-03-08T01:01:04;101150.69;;;18.19
49785;BMP280;35679;38.732;-121.358;2024-03-08T01:03:54;101147.81;;;18.20
49785;BMP280;35679;38.732;-121.358;2024-03-08T01:06:43;101154.00;;;18.21
49785;BMP280;35679;38.732;-121.358;2024-03-08T01:09:36;101154.00;;;18.21
49785;BMP280;35679;38.732;-121.358;2024-03-08T01:12:26;101156.66;;;18.21
49785;BMP280;35679;38.732;-121.358;2024-03-08T01:15:16;101160.97;;;18.22
49785;BMP280;35679;38.732;-121.358;2024-03-08T01:18:06;101161.78;;;18.22
49785;BMP280;35679;38.732;-121.358;2024-03-08T01:20:56;101166.31;;;18.22
49785;BMP280;35679;38.732;-121.358;2024-03-08T01:23:46;101166.13;;;18.23
49785;BMP280;35679;38.732;-121.358;2024-03-08T01:26:36;101167.94;;;18.23
49785;BMP280;35679;38.732;-121.358;2024-03-08T01:29:26;101181.31;;;18.23
49785;BMP280;35679;38.732;-121.358;2024-03-08T01:32:17;101183.97;;;18.23
49785;BMP280;35679;38.732;-121.358;2024-03-08T01:35:08;101187.47;;;18.23
49785;BMP280;35679;38.732;-121.358;2024-03-08T01:37:58;101191.16;;;18.22
49785;BMP280;35679;38.732;-121.358;2024-03-08T01:40:48;101186.63;;;18.23
49785;BMP280;35679;38.732;-121.358;2024-03-08T01:43:38;101195.50;;;18.23
49785;BMP280;35679;38.732;-121.358;2024-03-08T01:46:28;101197.31;;;18.23
49785;BMP280;35679;38.732;-121.358;2024-03-08T01:49:21;101195.88;;;18.20
49785;BMP280;35679;38.732;-121.358;2024-03-08T01:52:11;101200.41;;;18.20
49785;BMP280;35679;38.732;-121.358;2024-03-08T01:55:02;101213.78;;;18.20
49785;BMP280;35679;38.732;-121.358;2024-03-08T01:57:52;101216.44;;;18.20
49785;BMP280;35679;38.732;-121.358;2024-03-08T02:00:44;101216.66;;;18.18
49785;BMP280;35679;38.732;-121.358;2024-03-08T02:03:35;101219.50;;;18.17
49785;BMP280;35679;38.732;-121.358;2024-03-08T02:06:25;101215.19;;;18.16
49785;BMP280;35679;38.732;-121.358;2024-03-08T02:09:14;101221.53;;;18.15
49785;BMP280;35679;38.732;-121.358;2024-03-08T02:12:07;101214.56;;;18.14
49785;BMP280;35679;38.732;-121.358;2024-03-08T02:14:59;101224.63;;;18.12
49785;BMP280;35679;38.732;-121.358;2024-03-08T02:17:49;101231.59;;;18.13
49785;BMP280;35679;38.732;-121.358;2024-03-08T02:20:38;101224.81;;;18.10
49785;BMP280;35679;38.732;-121.358;2024-03-08T02:23:28;101222.16;;;18.10
49785;BMP280;35679;38.732;-121.358;2024-03-08T02:26:18;101231.22;;;18.09
49785;BMP280;35679;38.732;-121.358;2024-03-08T02:29:08;101235.09;;;18.07
49785;BMP280;35679;38.732;-121.358;2024-03-08T02:31:58;101236.13;;;18.06
49785;BMP280;35679;38.732;-121.358;2024-03-08T02:34:47;101244.13;;;18.06
49785;BMP280;35679;38.732;-121.358;2024-03-08T02:37:37;101261.19;;;18.05
49785;BMP280;35679;38.732;-121.358;2024-03-08T02:40:27;101257.88;;;18.03
49785;BMP280;35679;38.732;-121.358;2024-03-08T02:43:18;101267.75;;;18.02
49785;BMP280;35679;38.732;-121.358;2024-03-08T02:46:08;101267.94;;;18.01
49785;BMP280;35679;38.732;-121.358;2024-03-08T02:48:57;101270.00;;;17.99
49785;BMP280;35679;38.732;-121.358;2024-03-08T02:51:47;101273.69;;;17.98
49785;BMP280;35679;38.732;-121.358;2024-03-08T02:54:36;101286.22;;;17.97
49785;BMP280;35679;38.732;-121.358;2024-03-08T02:57:27;101289.09;;;17.96
49785;BMP280;35679;38.732;-121.358;2024-03-08T03:00:16;101283.94;;;17.94
49785;BMP280;35679;38.732;-121.358;2024-03-08T03:03:08;101281.47;;;17.93
49785;BMP280;35679;38.732;-121.358;2024-03-08T03:05:57;101288.88;;;17.91
49785;BMP280;35679;38.732;-121.358;2024-03-08T03:08:47;101294.38;;;17.89
49785;BMP280;35679;38.732;-121.358;2024-03-08T03:11:37;101298.09;;;17.88
49785;BMP280;35679;38.732;-121.358;2024-03-08T03:14:27;101299.94;;;17.88
49785;BMP280;35679;38.732;-121.358;2024-03-08T03:17:17;101302.00;;;17.86
49785;BMP280;35679;38.732;-121.358;2024-03-08T03:20:07;101303.03;;;17.85
49785;BMP280;35679;38.732;-121.358;2024-03-08T03:23:01;101316.56;;;17.83
49785;BMP280;35679;38.732;-121.358;2024-03-08T03:25:52;101321.28;;;17.81
49785;BMP280;35679;38.732;-121.358;2024-03-08T03:28:41;101322.28;;;17.80
49785;BMP280;35679;38.732;-121.358;2024-03-08T03:31:32;101325.16;;;17.79
49785;BMP280;35679;38.732;-121.358;2024-03-08T03:34:21;101333.38;;;17.77
49785;BMP280;35679;38.732;-121.358;2024-03-08T03:37:11;101333.56;;;17.76
49785;BMP280;35679;38.732;-121.358;2024-03-08T03:40:04;101330.28;;;17.74
49785;BMP280;35679;38.732;-121.358;2024-03-08T03:42:53;101333.75;;;17.74
49785;BMP280;35679;38.732;-121.358;2024-03-08T03:45:43;101349.97;;;17.73
49785;BMP280;35679;38.732;-121.358;2024-03-08T03:48:33;101350.19;;;17.72
49785;BMP280;35679;38.732;-121.358;2024-03-08T03:51:22;101354.69;;;17.71
49785;BMP280;35679;38.732;-121.358;2024-03-08T03:54:12;101344.41;;;17.68
49785;BMP280;35679;38.732;-121.358;2024-03-08T03:57:02;101350.97;;;17.66
49785;BMP280;35679;38.732;-121.358;2024-03-08T03:59:51;101359.19;;;17.64
49785;BMP280;35679;38.732;-121.358;2024-03-08T04:02:41;101354.03;;;17.63
49785;BMP280;35679;38.732;-121.358;2024-03-08T04:05:31;101366.53;;;17.62
49785;BMP280;35679;38.732;-121.358;2024-03-08T04:08:20;101364.09;;;17.61
49785;BMP280;35679;38.732;-121.358;2024-03-08T04:11:10;101359.97;;;17.58
49785;BMP280;35679;38.732;-121.358;2024-03-08T04:13:59;101356.47;;;17.58
49785;BMP280;35679;38.732;-121.358;2024-03-08T04:16:49;101357.50;;;17.57
49785;BMP280;35679;38.732;-121.358;2024-03-08T04:19:39;101358.50;;;17.56
49785;BMP280;35679;38.732;-121.358;2024-03-08T04:22:28;101362.41;;;17.53
49785;BMP280;35679;38.732;-121.358;2024-03-08T04:25:18;101366.28;;;17.51
49785;BMP280;35679;38.732;-121.358;2024-03-08T04:28:09;101365.44;;;17.50
49785;BMP280;35679;38.732;-121.358;2024-03-08T04:31:01;101368.31;;;17.49
49785;BMP280;35679;38.732;-121.358;2024-03-08T04:33:50;101367.69;;;17.47
49785;BMP280;35679;38.732;-121.358;2024-03-08T04:36:40;101369.53;;;17.46
49785;BMP280;35679;38.732;-121.358;2024-03-08T04:39:29;101378.75;;;17.44
49785;BMP280;35679;38.732;-121.358;2024-03-08T04:42:20;101377.94;;;17.43
49785;BMP280;35679;38.732;-121.358;2024-03-08T04:45:09;101372.16;;;17.40
49785;BMP280;35679;38.732;-121.358;2024-03-08T04:48:06;101383.22;;;17.37
49785;BMP280;35679;38.732;-121.358;2024-03-08T04:50:57;101382.59;;;17.35
49785;BMP280;35679;38.732;-121.358;2024-03-08T04:53:47;101379.28;;;17.33
49785;BMP280;35679;38.732;-121.358;2024-03-08T04:56:36;101380.28;;;17.32
49785;BMP280;35679;38.732;-121.358;2024-03-08T04:59:26;101383.38;;;17.29
49785;BMP280;35679;38.732;-121.358;2024-03-08T05:02:16;101393.38;;;17.27
49785;BMP280;35679;38.732;-121.358;2024-03-08T05:05:07;101393.59;;;17.25
49785;BMP280;35679;38.732;-121.358;2024-03-08T05:07:57;101392.94;;;17.23
49785;BMP280;35679;38.732;-121.358;2024-03-08T05:10:46;101394.97;;;17.21
49785;BMP280;35679;38.732;-121.358;2024-03-08T05:13:36;101398.66;;;17.20
49785;BMP280;35679;38.732;-121.358;2024-03-08T05:16:26;101405.19;;;17.18
49785;BMP280;35679;38.732;-121.358;2024-03-08T05:19:19;101403.53;;;17.17
49785;BMP280;35679;38.732;-121.358;2024-03-08T05:22:09;101410.94;;;17.15
49785;BMP280;35679;38.732;-121.358;2024-03-08T05:25:00;101410.28;;;17.13
49785;BMP280;35679;38.732;-121.358;2024-03-08T05:27:50;101419.50;;;17.10
49785;BMP280;35679;38.732;-121.358;2024-03-08T05:30:39;101430.16;;;17.10
49785;BMP280;35679;38.732;-121.358;2024-03-08T05:33:29;101419.88;;;17.08
49785;BMP280;35679;38.732;-121.358;2024-03-08T05:36:18;101423.56;;;17.07
49785;BMP280;35679;38.732;-121.358;2024-03-08T05:39:08;101428.25;;;17.05
49785;BMP280;35679;38.732;-121.358;2024-03-08T05:42:01;101431.13;;;17.03
49785;BMP280;35679;38.732;-121.358;2024-03-08T05:44:50;101427.81;;;17.01
49785;BMP280;35679;38.732;-121.358;2024-03-08T05:47:40;101429.84;;;16.99
49785;BMP280;35679;38.732;-121.358;2024-03-08T05:50:29;101426.75;;;16.96
49785;BMP280;35679;38.732;-121.358;2024-03-08T05:53:20;101430.41;;;16.95
49785;BMP280;35679;38.732;-121.358;2024-03-08T05:56:09;101434.09;;;16.94
49785;BMP280;35679;38.732;-121.358;2024-03-08T05:58:59;101441.47;;;16.92
49785;BMP280;35679;38.732;-121.358;2024-03-08T06:01:49;101441.66;;;16.90
49785;BMP280;35679;38.732;-121.358;2024-03-08T06:04:38;101454.16;;;16.90
49785;BMP280;35679;38.732;-121.358;2024-03-08T06:07:27;101442.88;;;16.88
49785;BMP280;35679;38.732;-121.358;2024-03-08T06:10:17;101452.03;;;16.85
49785;BMP280;35679;38.732;-121.358;2024-03-08T06:13:07;101450.22;;;16.86
49785;BMP280;35679;38.732;-121.358;2024-03-08T06:15:56;101460.44;;;16.82
49785;BMP280;35679;38.732;-121.358;2024-03-08T06:18:46;101454.44;;;16.80
49785;BMP280;35679;38.732;-121.358;2024-03-08T06:21:35;101461.84;;;16.78
49785;BMP280;35679;38.732;-121.358;2024-03-08T06:24:25;101450.34;;;16.78
49785;BMP280;35679;38.732;-121.358;2024-03-08T06:27:14;101456.06;;;16.75
49785;BMP280;35679;38.732;-121.358;2024-03-08T06:30:04;101451.91;;;16.72
49785;BMP280;35679;38.732;-121.358;2024-03-08T06:32:54;101455.78;;;16.70
49785;BMP280;35679;38.732;-121.358;2024-03-08T06:35:44;101460.31;;;16.69
49785;BMP280;35679;38.732;-121.358;2024-03-08T06:38:33;101457.81;;;16.68
49785;BMP280;35679;38.732;-121.358;2024-03-08T06:41:23;101456.53;;;16.64
49785;BMP280;35679;38.732;-121.358;2024-03-08T06:44:12;101467.19;;;16.64
49785;BMP280;35679;38.732;-121.358;2024-03-08T06:47:02;101462.25;;;16.61
49785;BMP280;35679;38.732;-121.358;2024-03-08T06:49:52;101465.94;;;16.60
49785;BMP280;35679;38.732;-121.358;2024-03-08T06:52:41;101456.47;;;16.57
49785;BMP280;35679;38.732;-121.358;2024-03-08T06:55:36;101457.47;;;16.56
49785;BMP280;35679;38.732;-121.358;2024-03-08T06:58:26;101454.63;;;16.58
49785;BMP280;35679;38.732;-121.358;2024-03-08T07:01:16;101445.38;;;16.54
49785;BMP280;35679;38.732;-121.358;2024-03-08T07:04:06;101461.34;;;16.54
49785;BMP280;35679;38.732;-121.358;2024-03-08T07:06:56;101452.69;;;16.52
49785;BMP280;35679;38.732;-121.358;2024-03-08T07:09:46;101452.91;;;16.50
49785;BMP280;35679;38.732;-121.358;2024-03-08T07:12:38;101457.59;;;16.48
49785;BMP280;35679;38.732;-121.358;2024-03-08T07:15:28;101453.28;;;16.47
49785;BMP280;35679;38.732;-121.358;2024-03-08T07:18:17;101464.13;;;16.46
49785;BMP280;35679;38.732;-121.358;2024-03-08T07:21:07;101457.16;;;16.45
49785;BMP280;35679;38.732;-121.358;2024-03-08T07:23:57;101458.97;;;16.44
49785;BMP280;35679;38.732;-121.358;2024-03-08T07:26:50;101466.34;;;16.42
49785;BMP280;35679;38.732;-121.358;2024-03-08T07:29:41;101457.50;;;16.42
49785;BMP280;35679;38.732;-121.358;2024-03-08T07:32:30;101453.22;;;16.41
49785;BMP280;35679;38.732;-121.358;2024-03-08T07:35:20;101465.69;;;16.41
49785;BMP280;35679;38.732;-121.358;2024-03-08T07:38:11;101464.22;;;16.38
49785;BMP280;35679;38.732;-121.358;2024-03-08T07:41:00;101466.06;;;16.38
49785;BMP280;35679;38.732;-121.358;2024-03-08T07:43:52;101471.41;;;16.38
49785;BMP280;35679;38.732;-121.358;2024-03-08T07:46:42;101467.09;;;16.37
49785;BMP280;35679;38.732;-121.358;2024-03-08T07:49:31;101470.94;;;16.34
49785;BMP280;35679;38.732;-121.358;2024-03-08T07:52:20;101479.94;;;16.33
49785;BMP280;35679;38.732;-121.358;2024-03-08T07:55:10;101481.94;;;16.31
49785;BMP280;35679;38.732;-121.358;2024-03-08T07:58:01;101477.81;;;16.29
49785;BMP280;35679;38.732;-121.358;2024-03-08T08:00:51;101488.66;;;16.27
49785;BMP280;35679;38.732;-121.358;2024-03-08T08:03:41;101489.63;;;16.26
49785;BMP280;35679;38.732;-121.358;2024-03-08T08:06:31;101494.34;;;16.24
49785;BMP280;35679;38.732;-121.358;2024-03-08T08:09:23;101484.88;;;16.22
49785;BMP280;35679;38.732;-121.358;2024-03-08T08:12:23;101484.22;;;16.20
49785;BMP280;35679;38.732;-121.358;2024-03-08T08:15:13;101480.94;;;16.18
49785;BMP280;35679;38.732;-121.358;2024-03-08T08:18:04;101488.09;;;16.17
49785;BMP280;35679;38.732;-121.358;2024-03-08T08:20:55;101499.94;;;16.15
49785;BMP280;35679;38.732;-121.358;2024-03-08T08:23:45;101494.16;;;16.11
49785;BMP280;35679;38.732;-121.358;2024-03-08T08:26:35;101494.34;;;16.10
49785;BMP280;35679;38.732;-121.358;2024-03-08T08:29:27;101503.53;;;16.07
49785;BMP280;35679;38.732;-121.358;2024-03-08T08:32:17;101509.84;;;16.06
49785;BMP280;35679;38.732;-121.358;2024-03-08T08:35:07;101510.84;;;16.05
49785;BMP280;35679;38.732;-121.358;2024-03-08T08:37:58;101509.38;;;16.03
49785;BMP280;35679;38.732;-121.358;2024-03-08T08:40:48;101520.22;;;16.01
49785;BMP280;35679;38.732;-121.358;2024-03-08T08:43:38;101513.44;;;15.99
49785;BMP280;35679;38.732;-121.358;2024-03-08T08:46:45;101523.25;;;15.98
49785;BMP280;35679;38.732;-121.358;2024-03-08T08:49:34;101530.59;;;15.96
49785;BMP280;35679;38.732;-121.358;2024-03-08T08:52:24;101526.28;;;15.95
49785;BMP280;35679;38.732;-121.358;2024-03-08T08:55:14;101536.09;;;15.95
49785;BMP280;35679;38.732;-121.358;2024-03-08T08:58:04;101529.97;;;15.94
49785;BMP280;35679;38.732;-121.358;2024-03-08T09:00:53;101531.13;;;15.92
49785;BMP280;35679;38.732;-121.358;2024-03-08T09:03:43;101533.16;;;15.90
49785;BMP280;35679;38.732;-121.358;2024-03-08T09:06:35;101531.50;;;15.89
49785;BMP280;35679;38.732;-121.358;2024-03-08T09:09:24;101541.47;;;15.87
49785;BMP280;35679;38.732;-121.358;2024-03-08T09:12:14;101543.34;;;15.86
49785;BMP280;35679;38.732;-121.358;2024-03-08T09:15:04;101552.50;;;15.84
49785;BMP280;35679;38.732;-121.358;2024-03-08T09:17:55;101562.34;;;15.83
49785;BMP280;35679;38.732;-121.358;2024-03-08T09:20:45;101558.19;;;15.81
49785;BMP280;35679;38.732;-121.358;2024-03-08T09:23:34;101558.03;;;15.82
49785;BMP280;35679;38.732;-121.358;2024-03-08T09:26:24;101551.41;;;15.78
49785;BMP280;35679;38.732;-121.358;2024-03-08T09:29:16;101558.72;;;15.76
49785;BMP280;35679;38.732;-121.358;2024-03-08T09:32:06;101555.41;;;15.74
49785;BMP280;35679;38.732;-121.358;2024-03-08T09:34:56;101562.38;;;15.75
49785;BMP280;35679;38.732;-121.358;2024-03-08T09:37:45;101561.91;;;15.72
49785;BMP280;35679;38.732;-121.358;2024-03-08T09:40:43;101556.78;;;15.71
49785;BMP280;35679;38.732;-121.358;2024-03-08T09:43:33;101556.78;;;15.71
49785;BMP280;35679;38.732;-121.358;2024-03-08T09:46:23;101556.13;;;15.69
49785;BMP280;35679;38.732;-121.358;2024-03-08T09:49:12;101555.13;;;15.70
49785;BMP280;35679;38.732;-121.358;2024-03-08T09:52:02;101539.72;;;15.65
49785;BMP280;35679;38.732;-121.358;2024-03-08T09:54:53;101544.19;;;15.65
49785;BMP280;35679;38.732;-121.358;2024-03-08T09:57:44;101542.91;;;15.61
49785;BMP280;35679;38.732;-121.358;2024-03-08T10:00:56;101537.59;;;15.61
49785;BMP280;35679;38.732;-121.358;2024-03-08T10:03:47;101538.59;;;15.60
49785;BMP280;35679;38.732;-121.358;2024-03-08T10:06:38;101539.97;;;15.56
49785;BMP280;35679;38.732;-121.358;2024-03-08T10:09:27;101547.28;;;15.54
49785;BMP280;35679;38.732;-121.358;2024-03-08T10:12:17;101542.81;;;15.54
49785;BMP280;35679;38.732;-121.358;2024-03-08T10:15:08;101537.81;;;15.51
49785;BMP280;35679;38.732;-121.358;2024-03-08T10:17:57;101537.00;;;15.51
49785;BMP280;35679;38.732;-121.358;2024-03-08T10:21:02;101532.41;;;15.45
49785;BMP280;35679;38.732;-121.358;2024-03-08T10:23:53;101545.50;;;15.46
49785;BMP280;35679;38.732;-121.358;2024-03-08T10:26:42;101541.03;;;15.47
49785;BMP280;35679;38.732;-121.358;2024-03-08T10:29:33;101542.22;;;15.44
49785;BMP280;35679;38.732;-121.358;2024-03-08T10:32:22;101543.03;;;15.45
49785;BMP280;35679;38.732;-121.358;2024-03-08T10:35:13;101539.09;;;15.41
49785;BMP280;35679;38.732;-121.358;2024-03-08T10:38:05;101532.28;;;15.38
49785;BMP280;35679;38.732;-121.358;2024-03-08T10:40:59;101528.63;;;15.39
49785;BMP280;35679;38.732;-121.358;2024-03-08T10:44:05;101535.13;;;15.37
49785;BMP280;35679;38.732;-121.358;2024-03-08T10:47:03;101522.00;;;15.35
49785;BMP280;35679;38.732;-121.358;2024-03-08T10:52:57;101522.38;;;15.32
49785;BMP280;35679;38.732;-121.358;2024-03-08T10:55:50;101520.72;;;15.31
49785;BMP280;35679;38.732;-121.358;2024-03-08T10:58:42;101508.41;;;15.30
49785;BMP280;35679;38.732;-121.358;2024-03-08T11:01:33;101509.59;;;15.28
49785;BMP280;35679;38.732;-121.358;2024-03-08T11:04:23;101513.91;;;15.29
49785;BMP280;35679;38.732;-121.358;2024-03-08T11:07:13;101518.59;;;15.27
49785;BMP280;35679;38.732;-121.358;2024-03-08T11:10:18;101522.25;;;15.26
49785;BMP280;35679;38.732;-121.358;2024-03-08T11:13:34;101519.59;;;15.26
49785;BMP280;35679;38.732;-121.358;2024-03-08T11:22:25;101521.94;;;15.21
49785;BMP280;35679;38.732;-121.358;2024-03-08T11:25:39;101527.41;;;15.19
49785;BMP280;35679;38.732;-121.358;2024-03-08T11:28:34;101530.06;;;15.19
49785;BMP280;35679;38.732;-121.358;2024-03-08T11:31:25;101545.19;;;15.19
49785;BMP280;35679;38.732;-121.358;2024-03-08T11:34:19;101545.56;;;15.16
49785;BMP280;35679;38.732;-121.358;2024-03-08T11:37:18;101547.56;;;15.14
49785;BMP280;35679;38.732;-121.358;2024-03-08T11:40:12;101554.88;;;15.12
49785;BMP280;35679;38.732;-121.358;2024-03-08T11:43:05;101565.50;;;15.12
49785;BMP280;35679;38.732;-121.358;2024-03-08T11:46:08;101573.03;;;15.08
49785;BMP280;35679;38.732;-121.358;2024-03-08T11:48:58;101575.69;;;15.08
49785;BMP280;35679;38.732;-121.358;2024-03-08T11:51:51;101576.03;;;15.06
49785;BMP280;35679;38.732;-121.358;2024-03-08T11:54:42;101579.53;;;15.06
49785;BMP280;35679;38.732;-121.358;2024-03-08T11:57:36;101579.84;;;15.03
49785;BMP280;35679;38.732;-121.358;2024-03-08T12:00:26;101577.38;;;15.02
49785;BMP280;35679;38.732;-121.358;2024-03-08T12:03:20;101592.47;;;15.01
49785;BMP280;35679;38.732;-121.358;2024-03-08T12:06:10;101581.84;;;15.01
49785;BMP280;35679;38.732;-121.358;2024-03-08T12:08:59;101589.38;;;14.98
49785;BMP280;35679;38.732;-121.358;2024-03-08T12:11:49;101590.34;;;14.97
49785;BMP280;35679;38.732;-121.358;2024-03-08T12:14:43;101587.03;;;14.95
49785;BMP280;35679;38.732;-121.358;2024-03-08T12:17:33;101586.41;;;14.93
49785;BMP280;35679;38.732;-121.358;2024-03-08T12:20:25;101589.06;;;14.93
49785;BMP280;35679;38.732;-121.358;2024-03-08T12:23:16;101583.75;;;14.93
49785;BMP280;35679;38.732;-121.358;2024-03-08T12:26:13;101582.41;;;14.89
49785;BMP280;35679;38.732;-121.358;2024-03-08T12:29:19;101596.56;;;14.89
49785;BMP280;35679;38.732;-121.358;2024-03-08T12:32:11;101589.75;;;14.87
49785;BMP280;35679;38.732;-121.358;2024-03-08T12:35:01;101590.94;;;14.84
49785;BMP280;35679;38.732;-121.358;2024-03-08T12:37:57;101599.91;;;14.83
49785;BMP280;35679;38.732;-121.358;2024-03-08T12:40:47;101601.06;;;14.81
49785;BMP280;35679;38.732;-121.358;2024-03-08T12:43:37;101602.72;;;14.82
49785;BMP280;35679;38.732;-121.358;2024-03-08T12:46:26;101606.56;;;14.79
49785;BMP280;35679;38.732;-121.358;2024-03-08T12:49:15;101618.19;;;14.78
49785;BMP280;35679;38.732;-121.358;2024-03-08T12:52:11;101626.34;;;14.77
49785;BMP280;35679;38.732;-121.358;2024-03-08T12:55:01;101630.78;;;14.76
49785;BMP280;35679;38.732;-121.358;2024-03-08T12:57:55;101634.44;;;14.75
49785;BMP280;35679;38.732;-121.358;2024-03-08T13:00:45;101638.13;;;14.74
49785;BMP280;35679;38.732;-121.358;2024-03-08T13:03:37;101640.94;;;14.73
49785;BMP280;35679;38.732;-121.358;2024-03-08T13:06:26;101632.97;;;14.73
49785;BMP280;35679;38.732;-121.358;2024-03-08T13:09:17;101638.44;;;14.71
49785;BMP280;35679;38.732;-121.358;2024-03-08T13:12:08;101650.06;;;14.70
49785;BMP280;35679;38.732;-121.358;2024-03-08T13:14:58;101647.78;;;14.67
49785;BMP280;35679;38.732;-121.358;2024-03-08T13:17:47;101655.25;;;14.64
49785;BMP280;35679;38.732;-121.358;2024-03-08T13:20:37;101667.72;;;14.63
49785;BMP280;35679;38.732;-121.358;2024-03-08T13:23:34;101670.53;;;14.62
49785;BMP280;35679;38.732;-121.358;2024-03-08T13:26:30;101676.69;;;14.62
49785;BMP280;35679;38.732;-121.358;2024-03-08T13:29:22;101673.34;;;14.60
49785;BMP280;35679;38.732;-121.358;2024-03-08T13:32:12;101676.00;;;14.60
49785;BMP280;35679;38.732;-121.358;2024-03-08T13:35:01;101683.50;;;14.57
49785;BMP280;35679;38.732;-121.358;2024-03-08T13:37:51;101682.66;;;14.56
49785;BMP280;35679;38.732;-121.358;2024-03-08T13:40:41;101689.81;;;14.56
49785;BMP280;35679;38.732;-121.358;2024-03-08T13:43:30;101698.94;;;14.53
49785;BMP280;35679;38.732;-121.358;2024-03-08T13:46:23;101700.13;;;14.51
49785;BMP280;35679;38.732;-121.358;2024-03-08T13:49:13;101706.25;;;14.51
49785;BMP280;35679;38.732;-121.358;2024-03-08T13:52:03;101699.25;;;14.50
49785;BMP280;35679;38.732;-121.358;2024-03-08T13:54:53;101714.69;;;14.47
49785;BMP280;35679;38.732;-121.358;2024-03-08T13:57:43;101721.84;;;14.46
49785;BMP280;35679;38.732;-121.358;2024-03-08T14:00:33;101729.00;;;14.46
49785;BMP280;35679;38.732;-121.358;2024-03-08T14:03:23;101730.16;;;14.43
49785;BMP280;35679;38.732;-121.358;2024-03-08T14:06:13;101732.16;;;14.42
49785;BMP280;35679;38.732;-121.358;2024-03-08T14:09:13;101742.78;;;14.42
49785;BMP280;35679;38.732;-121.358;2024-03-08T14:12:09;101746.41;;;14.41
49785;BMP280;35679;38.732;-121.358;2024-03-08T14:14:58;101758.03;;;14.40
49785;BMP280;35679;38.732;-121.358;2024-03-08T14:17:55;101752.88;;;14.38
49785;BMP280;35679;38.732;-121.358;2024-03-08T14:20:44;101755.72;;;14.37
49785;BMP280;35679;38.732;-121.358;2024-03-08T14:23:34;101754.72;;;14.38
49785;BMP280;35679;38.732;-121.358;2024-03-08T14:26:23;101756.53;;;14.37
49785;BMP280;35679;38.732;-121.358;2024-03-08T14:29:13;101764.66;;;14.36
49785;BMP280;35679;38.732;-121.358;2024-03-08T14:32:02;101766.34;;;14.37
49785;BMP280;35679;38.732;-121.358;2024-03-08T14:34:54;101767.50;;;14.34
49785;BMP280;35679;38.732;-121.358;2024-03-08T14:37:44;101778.94;;;14.35
49785;BMP280;35679;38.732;-121.358;2024-03-08T14:40:34;101777.94;;;14.36
49785;BMP280;35679;38.732;-121.358;2024-03-08T14:43:25;101785.41;;;14.32
49785;BMP280;35679;38.732;-121.358;2024-03-08T14:46:15;101779.47;;;14.30
49785;BMP280;35679;38.732;-121.358;2024-03-08T14:49:09;101788.59;;;14.28
49785;BMP280;35679;38.732;-121.358;2024-03-08T14:51:59;101798.19;;;14.29
49785;BMP280;35679;38.732;-121.358;2024-03-08T14:54:48;101808.97;;;14.27
49785;BMP280;35679;38.732;-121.358;2024-03-08T14:57:38;101813.13;;;14.30
49785;BMP280;35679;38.732;-121.358;2024-03-08T15:00:28;101821.25;;;14.28
49785;BMP280;35679;38.732;-121.358;2024-03-08T15:03:24;101821.09;;;14.30
49785;BMP280;35679;38.732;-121.358;2024-03-08T15:06:15;101822.06;;;14.29
49785;BMP280;35679;38.732;-121.358;2024-03-08T15:09:09;101832.69;;;14.29
49785;BMP280;35679;38.732;-121.358;2024-03-08T15:12:06;101834.19;;;14.31
49785;BMP280;35679;38.732;-121.358;2024-03-08T15:14:56;101829.91;;;14.30
49785;BMP280;35679;38.732;-121.358;2024-03-08T15:17:45;101833.53;;;14.29
49785;BMP280;35679;38.732;-121.358;2024-03-08T15:20:36;101829.38;;;14.27
49785;BMP280;35679;38.732;-121.358;2024-03-08T15:23:25;101829.38;;;14.27
49785;BMP280;35679;38.732;-121.358;2024-03-08T15:26:15;101830.72;;;14.31
49785;BMP280;35679;38.732;-121.358;2024-03-08T15:29:05;101839.34;;;14.33
49785;BMP280;35679;38.732;-121.358;2024-03-08T15:31:55;101841.50;;;14.29
49785;BMP280;35679;38.732;-121.358;2024-03-08T15:34:44;101844.16;;;14.29
49785;BMP280;35679;38.732;-121.358;2024-03-08T15:37:34;101852.28;;;14.28
49785;BMP280;35679;38.732;-121.358;2024-03-08T15:40:24;101860.91;;;14.30